sensor_id;sensor_type;location;lat;lon;timestamp;P1;durP1;ratioP1;P2;durP2;ratioP2
68825;SDS011;55841;53.392;10.086;2022-12-18T00:00:44;14.48;;;5.40;;
68825;SDS011;55841;53.392;10.086;2022-12-18T00:03:10;17.52;;;6.07;;
68825;SDS011;55841;53.392;10.086;2022-12-18T00:05:35;13.73;;;5.18;;
68825;SDS011;55841;53.392;10.086;2022-12-18T00:08:01;14.95;;;5.47;;
68825;SDS011;55841;53.392;10.086;2022-12-18T00:10:28;13.18;;;4.82;;
68825;SDS011;55841;53.392;10.086;2022-12-18T00:12:53;13.95;;;5.30;;
68825;SDS011;55841;53.392;10.086;2022-12-18T00:15:19;12.95;;;4.70;;
68825;SDS011;55841;53.392;10.086;2022-12-18T00:17:44;12.95;;;5.20;;
68825;SDS011;55841;53.392;10.086;2022-12-18T00:20:10;15.27;;;5.45;;
68825;SDS011;55841;53.392;10.086;2022-12-18T00:22:36;14.15;;;5.38;;
68825;SDS011;55841;53.392;10.086;2022-12-18T00:25:01;13.75;;;5.28;;
68825;SDS011;55841;53.392;10.086;2022-12-18T00:27:27;13.43;;;5.20;;
68825;SDS011;55841;53.392;10.086;2022-12-18T00:29:53;15.10;;;4.80;;
68825;SDS011;55841;53.392;10.086;2022-12-18T00:32:18;15.57;;;5.28;;
68825;SDS011;55841;53.392;10.086;2022-12-18T00:34:43;15.07;;;5.70;;
68825;SDS011;55841;53.392;10.086;2022-12-18T00:37:09;16.33;;;5.13;;
68825;SDS011;55841;53.392;10.086;2022-12-18T00:39:34;15.50;;;5.70;;
68825;SDS011;55841;53.392;10.086;2022-12-18T00:42:00;12.82;;;5.07;;
68825;SDS011;55841;53.392;10.086;2022-12-18T00:44:25;11.80;;;4.68;;
68825;SDS011;55841;53.392;10.086;2022-12-18T00:46:51;14.15;;;5.72;;
68825;SDS011;55841;53.392;10.086;2022-12-18T00:49:17;13.13;;;5.30;;
68825;SDS011;55841;53.392;10.086;2022-12-18T00:51:43;16.80;;;5.10;;
68825;SDS011;55841;53.392;10.086;2022-12-18T00:54:09;13.68;;;5.25;;
68825;SDS011;55841;53.392;10.086;2022-12-18T00:56:35;15.23;;;4.85;;
68825;SDS011;55841;53.392;10.086;2022-12-18T01:01:27;17.23;;;4.75;;
68825;SDS011;55841;53.392;10.086;2022-12-18T01:03:52;15.05;;;5.03;;
68825;SDS011;55841;53.392;10.086;2022-12-18T01:06:18;15.13;;;4.63;;
68825;SDS011;55841;53.392;10.086;2022-12-18T01:08:44;14.15;;;4.85;;
68825;SDS011;55841;53.392;10.086;2022-12-18T01:11:11;14.98;;;5.25;;
68825;SDS011;55841;53.392;10.086;2022-12-18T01:13:41;15.25;;;4.85;;
68825;SDS011;55841;53.392;10.086;2022-12-18T01:16:07;14.95;;;4.72;;
68825;SDS011;55841;53.392;10.086;2022-12-18T01:18:33;18.83;;;4.60;;
68825;SDS011;55841;53.392;10.086;2022-12-18T01:20:59;16.65;;;5.57;;
68825;SDS011;55841;53.392;10.086;2022-12-18T01:23:24;18.67;;;5.35;;
68825;SDS011;55841;53.392;10.086;2022-12-18T01:25:50;12.70;;;4.70;;
68825;SDS011;55841;53.392;10.086;2022-12-18T01:28:15;16.55;;;4.80;;
68825;SDS011;55841;53.392;10.086;2022-12-18T01:30:40;15.73;;;4.90;;
68825;SDS011;55841;53.392;10.086;2022-12-18T01:33:06;13.00;;;4.65;;
68825;SDS011;55841;53.392;10.086;2022-12-18T01:35:31;14.20;;;4.45;;
68825;SDS011;55841;53.392;10.086;2022-12-18T01:37:57;14.70;;;5.03;;
68825;SDS011;55841;53.392;10.086;2022-12-18T01:40:23;16.15;;;4.90;;
68825;SDS011;55841;53.392;10.086;2022-12-18T01:42:51;16.00;;;4.75;;
68825;SDS011;55841;53.392;10.086;2022-12-18T01:47:44;13.45;;;4.47;;
68825;SDS011;55841;53.392;10.086;2022-12-18T01:50:14;12.77;;;4.43;;
68825;SDS011;55841;53.392;10.086;2022-12-18T01:53:33;19.33;;;4.55;;
68825;SDS011;55841;53.392;10.086;2022-12-18T01:55:48;13.10;;;4.20;;
68825;SDS011;55841;53.392;10.086;2022-12-18T01:58:19;12.52;;;4.25;;
68825;SDS011;55841;53.392;10.086;2022-12-18T02:00:55;14.13;;;4.45;;
68825;SDS011;55841;53.392;10.086;2022-12-18T02:03:20;14.50;;;4.25;;
68825;SDS011;55841;53.392;10.086;2022-12-18T02:05:47;12.00;;;4.70;;
68825;SDS011;55841;53.392;10.086;2022-12-18T02:08:20;12.50;;;3.97;;
68825;SDS011;55841;53.392;10.086;2022-12-18T02:16:58;15.50;;;4.95;;
68825;SDS011;55841;53.392;10.086;2022-12-18T02:19:37;11.70;;;4.40;;
68825;SDS011;55841;53.392;10.086;2022-12-18T02:24:45;13.68;;;4.35;;
68825;SDS011;55841;53.392;10.086;2022-12-18T02:27:35;14.63;;;5.13;;
68825;SDS011;55841;53.392;10.086;2022-12-18T02:32:36;11.27;;;3.85;;
68825;SDS011;55841;53.392;10.086;2022-12-18T02:35:05;12.13;;;3.90;;
68825;SDS011;55841;53.392;10.086;2022-12-18T02:37:34;12.70;;;4.20;;
68825;SDS011;55841;53.392;10.086;2022-12-18T02:40:04;14.60;;;4.72;;
68825;SDS011;55841;53.392;10.086;2022-12-18T02:42:30;11.30;;;4.18;;
68825;SDS011;55841;53.392;10.086;2022-12-18T02:44:57;11.18;;;3.72;;
68825;SDS011;55841;53.392;10.086;2022-12-18T02:47:23;13.30;;;4.40;;
68825;SDS011;55841;53.392;10.086;2022-12-18T02:55:44;11.40;;;4.10;;
68825;SDS011;55841;53.392;10.086;2022-12-18T03:01:24;13.63;;;4.32;;
68825;SDS011;55841;53.392;10.086;2022-12-18T03:04:32;14.45;;;4.32;;
68825;SDS011;55841;53.392;10.086;2022-12-18T03:07:09;13.30;;;4.47;;
68825;SDS011;55841;53.392;10.086;2022-12-18T03:09:41;12.57;;;4.25;;
68825;SDS011;55841;53.392;10.086;2022-12-18T03:12:14;15.15;;;4.47;;
68825;SDS011;55841;53.392;10.086;2022-12-18T03:14:43;14.05;;;4.15;;
68825;SDS011;55841;53.392;10.086;2022-12-18T03:17:15;13.95;;;4.40;;
68825;SDS011;55841;53.392;10.086;2022-12-18T03:19:44;15.18;;;4.85;;
68825;SDS011;55841;53.392;10.086;2022-12-18T03:22:12;13.48;;;4.45;;
68825;SDS011;55841;53.392;10.086;2022-12-18T03:24:40;13.90;;;4.53;;
68825;SDS011;55841;53.392;10.086;2022-12-18T03:27:08;12.90;;;4.55;;
68825;SDS011;55841;53.392;10.086;2022-12-18T03:32:32;12.85;;;4.20;;
68825;SDS011;55841;53.392;10.086;2022-12-18T03:35:03;12.38;;;4.28;;
68825;SDS011;55841;53.392;10.086;2022-12-18T03:37:30;12.75;;;5.03;;
68825;SDS011;55841;53.392;10.086;2022-12-18T03:39:56;15.02;;;4.63;;
68825;SDS011;55841;53.392;10.086;2022-12-18T03:42:25;13.70;;;4.75;;
68825;SDS011;55841;53.392;10.086;2022-12-18T03:50:23;14.10;;;3.97;;
68825;SDS011;55841;53.392;10.086;2022-12-18T03:53:36;14.05;;;4.68;;
68825;SDS011;55841;53.392;10.086;2022-12-18T03:55:44;10.15;;;3.65;;
68825;SDS011;55841;53.392;10.086;2022-12-18T03:58:13;13.85;;;4.75;;
68825;SDS011;55841;53.392;10.086;2022-12-18T04:00:42;12.30;;;4.10;;
68825;SDS011;55841;53.392;10.086;2022-12-18T04:03:09;12.50;;;4.47;;
68825;SDS011;55841;53.392;10.086;2022-12-18T04:05:35;15.43;;;4.55;;
68825;SDS011;55841;53.392;10.086;2022-12-18T04:08:02;14.10;;;4.53;;
68825;SDS011;55841;53.392;10.086;2022-12-18T04:10:29;16.58;;;5.55;;
68825;SDS011;55841;53.392;10.086;2022-12-18T04:12:58;11.95;;;3.85;;
68825;SDS011;55841;53.392;10.086;2022-12-18T04:15:23;12.60;;;4.43;;
68825;SDS011;55841;53.392;10.086;2022-12-18T04:17:50;15.00;;;4.07;;
68825;SDS011;55841;53.392;10.086;2022-12-18T04:20:16;12.85;;;4.20;;
68825;SDS011;55841;53.392;10.086;2022-12-18T04:22:42;15.98;;;4.53;;
68825;SDS011;55841;53.392;10.086;2022-12-18T04:25:08;13.82;;;4.43;;
68825;SDS011;55841;53.392;10.086;2022-12-18T04:27:38;14.35;;;5.07;;
68825;SDS011;55841;53.392;10.086;2022-12-18T04:30:04;14.18;;;4.53;;
68825;SDS011;55841;53.392;10.086;2022-12-18T04:32:30;13.25;;;4.00;;
68825;SDS011;55841;53.392;10.086;2022-12-18T04:34:55;15.00;;;3.97;;
68825;SDS011;55841;53.392;10.086;2022-12-18T04:37:21;10.63;;;3.67;;
68825;SDS011;55841;53.392;10.086;2022-12-18T04:39:46;13.65;;;4.65;;
68825;SDS011;55841;53.392;10.086;2022-12-18T04:42:12;12.18;;;4.10;;
68825;SDS011;55841;53.392;10.086;2022-12-18T04:44:37;12.00;;;3.75;;
68825;SDS011;55841;53.392;10.086;2022-12-18T04:47:03;12.20;;;4.30;;
68825;SDS011;55841;53.392;10.086;2022-12-18T04:49:29;13.57;;;4.20;;
68825;SDS011;55841;53.392;10.086;2022-12-18T04:51:54;18.10;;;4.55;;
68825;SDS011;55841;53.392;10.086;2022-12-18T04:54:20;11.90;;;4.18;;
68825;SDS011;55841;53.392;10.086;2022-12-18T04:56:45;11.55;;;4.25;;
68825;SDS011;55841;53.392;10.086;2022-12-18T04:59:11;16.48;;;4.22;;
68825;SDS011;55841;53.392;10.086;2022-12-18T05:01:36;12.55;;;4.15;;
68825;SDS011;55841;53.392;10.086;2022-12-18T05:04:02;14.70;;;4.47;;
68825;SDS011;55841;53.392;10.086;2022-12-18T05:06:28;12.82;;;4.55;;
68825;SDS011;55841;53.392;10.086;2022-12-18T05:08:53;15.02;;;4.25;;
68825;SDS011;55841;53.392;10.086;2022-12-18T05:11:19;12.63;;;4.38;;
68825;SDS011;55841;53.392;10.086;2022-12-18T05:13:45;15.25;;;4.35;;
68825;SDS011;55841;53.392;10.086;2022-12-18T05:16:11;13.88;;;3.83;;
68825;SDS011;55841;53.392;10.086;2022-12-18T05:18:38;15.73;;;4.45;;
68825;SDS011;55841;53.392;10.086;2022-12-18T05:21:04;12.98;;;4.30;;
68825;SDS011;55841;53.392;10.086;2022-12-18T05:23:29;13.30;;;5.03;;
68825;SDS011;55841;53.392;10.086;2022-12-18T05:25:56;13.23;;;4.28;;
68825;SDS011;55841;53.392;10.086;2022-12-18T05:28:23;12.90;;;4.30;;
68825;SDS011;55841;53.392;10.086;2022-12-18T05:30:50;12.15;;;3.95;;
68825;SDS011;55841;53.392;10.086;2022-12-18T05:33:17;12.93;;;4.25;;
68825;SDS011;55841;53.392;10.086;2022-12-18T05:35:44;13.45;;;4.28;;
68825;SDS011;55841;53.392;10.086;2022-12-18T05:38:14;12.77;;;4.30;;
68825;SDS011;55841;53.392;10.086;2022-12-18T05:40:41;12.15;;;3.85;;
68825;SDS011;55841;53.392;10.086;2022-12-18T05:43:07;12.30;;;4.13;;
68825;SDS011;55841;53.392;10.086;2022-12-18T05:45:32;13.02;;;4.25;;
68825;SDS011;55841;53.392;10.086;2022-12-18T05:48:02;10.57;;;3.78;;
68825;SDS011;55841;53.392;10.086;2022-12-18T05:50:28;12.98;;;4.07;;
68825;SDS011;55841;53.392;10.086;2022-12-18T05:52:53;12.20;;;3.70;;
68825;SDS011;55841;53.392;10.086;2022-12-18T05:55:19;13.05;;;4.10;;
68825;SDS011;55841;53.392;10.086;2022-12-18T05:57:44;16.10;;;4.38;;
68825;SDS011;55841;53.392;10.086;2022-12-18T06:00:10;13.13;;;4.57;;
68825;SDS011;55841;53.392;10.086;2022-12-18T06:02:36;11.88;;;4.38;;
68825;SDS011;55841;53.392;10.086;2022-12-18T06:05:01;15.85;;;4.32;;
68825;SDS011;55841;53.392;10.086;2022-12-18T06:07:27;16.65;;;4.40;;
68825;SDS011;55841;53.392;10.086;2022-12-18T06:09:52;13.00;;;3.88;;
68825;SDS011;55841;53.392;10.086;2022-12-18T06:12:18;14.82;;;4.55;;
68825;SDS011;55841;53.392;10.086;2022-12-18T06:14:43;12.70;;;3.72;;
68825;SDS011;55841;53.392;10.086;2022-12-18T06:17:09;15.35;;;4.18;;
68825;SDS011;55841;53.392;10.086;2022-12-18T06:19:34;15.82;;;4.20;;
68825;SDS011;55841;53.392;10.086;2022-12-18T06:22:00;11.95;;;4.00;;
68825;SDS011;55841;53.392;10.086;2022-12-18T06:24:25;12.85;;;3.88;;
68825;SDS011;55841;53.392;10.086;2022-12-18T06:26:51;13.85;;;4.10;;
68825;SDS011;55841;53.392;10.086;2022-12-18T06:29:16;14.05;;;4.10;;
68825;SDS011;55841;53.392;10.086;2022-12-18T06:31:42;8.68;;;3.08;;
68825;SDS011;55841;53.392;10.086;2022-12-18T06:34:07;12.98;;;4.28;;
68825;SDS011;55841;53.392;10.086;2022-12-18T06:36:32;8.90;;;3.22;;
68825;SDS011;55841;53.392;10.086;2022-12-18T06:38:58;12.32;;;4.32;;
68825;SDS011;55841;53.392;10.086;2022-12-18T06:41:24;12.35;;;3.90;;
68825;SDS011;55841;53.392;10.086;2022-12-18T06:43:49;14.18;;;3.88;;
68825;SDS011;55841;53.392;10.086;2022-12-18T06:46:15;10.82;;;3.88;;
68825;SDS011;55841;53.392;10.086;2022-12-18T06:48:40;16.48;;;4.25;;
68825;SDS011;55841;53.392;10.086;2022-12-18T06:51:06;10.32;;;3.30;;
68825;SDS011;55841;53.392;10.086;2022-12-18T06:53:32;12.18;;;3.90;;
68825;SDS011;55841;53.392;10.086;2022-12-18T06:56:01;14.32;;;4.22;;
68825;SDS011;55841;53.392;10.086;2022-12-18T06:58:28;11.43;;;3.88;;
68825;SDS011;55841;53.392;10.086;2022-12-18T07:00:58;11.70;;;3.83;;
68825;SDS011;55841;53.392;10.086;2022-12-18T07:03:25;10.43;;;3.40;;
68825;SDS011;55841;53.392;10.086;2022-12-18T07:05:50;12.70;;;3.97;;
68825;SDS011;55841;53.392;10.086;2022-12-18T07:08:16;12.20;;;3.78;;
68825;SDS011;55841;53.392;10.086;2022-12-18T07:10:42;15.15;;;4.05;;
68825;SDS011;55841;53.392;10.086;2022-12-18T07:16:12;13.70;;;4.30;;
68825;SDS011;55841;53.392;10.086;2022-12-18T07:19:04;14.27;;;4.43;;
68825;SDS011;55841;53.392;10.086;2022-12-18T07:21:30;12.93;;;3.97;;
68825;SDS011;55841;53.392;10.086;2022-12-18T07:23:55;13.70;;;4.78;;
68825;SDS011;55841;53.392;10.086;2022-12-18T07:26:21;17.50;;;6.43;;
68825;SDS011;55841;53.392;10.086;2022-12-18T07:28:47;12.55;;;4.05;;
68825;SDS011;55841;53.392;10.086;2022-12-18T07:31:15;14.98;;;3.72;;
68825;SDS011;55841;53.392;10.086;2022-12-18T07:33:43;13.00;;;4.25;;
68825;SDS011;55841;53.392;10.086;2022-12-18T07:36:09;16.13;;;4.50;;
68825;SDS011;55841;53.392;10.086;2022-12-18T07:38:35;16.60;;;3.78;;
68825;SDS011;55841;53.392;10.086;2022-12-18T07:41:05;16.33;;;4.30;;
68825;SDS011;55841;53.392;10.086;2022-12-18T07:43:33;12.57;;;4.50;;
68825;SDS011;55841;53.392;10.086;2022-12-18T07:45:59;13.63;;;5.00;;
68825;SDS011;55841;53.392;10.086;2022-12-18T07:48:25;13.15;;;4.40;;
68825;SDS011;55841;53.392;10.086;2022-12-18T07:50:51;14.50;;;4.50;;
68825;SDS011;55841;53.392;10.086;2022-12-18T07:53:16;13.55;;;4.70;;
68825;SDS011;55841;53.392;10.086;2022-12-18T07:55:42;14.18;;;4.55;;
68825;SDS011;55841;53.392;10.086;2022-12-18T07:58:07;13.73;;;4.60;;
68825;SDS011;55841;53.392;10.086;2022-12-18T08:00:33;15.70;;;5.25;;
68825;SDS011;55841;53.392;10.086;2022-12-18T08:02:59;12.60;;;4.78;;
68825;SDS011;55841;53.392;10.086;2022-12-18T08:05:25;13.60;;;4.43;;
68825;SDS011;55841;53.392;10.086;2022-12-18T08:07:51;12.13;;;4.20;;
68825;SDS011;55841;53.392;10.086;2022-12-18T08:10:17;14.70;;;5.10;;
68825;SDS011;55841;53.392;10.086;2022-12-18T08:12:42;13.07;;;5.18;;
68825;SDS011;55841;53.392;10.086;2022-12-18T08:15:08;14.65;;;5.10;;
68825;SDS011;55841;53.392;10.086;2022-12-18T08:17:34;15.77;;;4.72;;
68825;SDS011;55841;53.392;10.086;2022-12-18T08:19:59;14.93;;;5.70;;
68825;SDS011;55841;53.392;10.086;2022-12-18T08:22:25;16.10;;;5.55;;
68825;SDS011;55841;53.392;10.086;2022-12-18T08:24:51;17.42;;;5.32;;
68825;SDS011;55841;53.392;10.086;2022-12-18T08:27:16;16.63;;;6.13;;
68825;SDS011;55841;53.392;10.086;2022-12-18T08:29:42;17.67;;;5.72;;
68825;SDS011;55841;53.392;10.086;2022-12-18T08:32:07;17.25;;;5.22;;
68825;SDS011;55841;53.392;10.086;2022-12-18T08:34:33;18.50;;;6.47;;
68825;SDS011;55841;53.392;10.086;2022-12-18T08:36:59;19.48;;;6.30;;
68825;SDS011;55841;53.392;10.086;2022-12-18T08:39:24;20.30;;;6.18;;
68825;SDS011;55841;53.392;10.086;2022-12-18T08:41:49;17.27;;;5.88;;
68825;SDS011;55841;53.392;10.086;2022-12-18T08:44:15;18.90;;;6.68;;
68825;SDS011;55841;53.392;10.086;2022-12-18T08:46:41;19.23;;;6.57;;
68825;SDS011;55841;53.392;10.086;2022-12-18T08:49:08;21.17;;;7.95;;
68825;SDS011;55841;53.392;10.086;2022-12-18T08:51:34;17.52;;;6.93;;
68825;SDS011;55841;53.392;10.086;2022-12-18T08:54:00;17.33;;;6.50;;
68825;SDS011;55841;53.392;10.086;2022-12-18T08:56:25;22.30;;;7.70;;
68825;SDS011;55841;53.392;10.086;2022-12-18T08:58:52;18.55;;;7.22;;
68825;SDS011;55841;53.392;10.086;2022-12-18T09:01:18;21.58;;;7.55;;
68825;SDS011;55841;53.392;10.086;2022-12-18T09:03:50;24.35;;;7.82;;
68825;SDS011;55841;53.392;10.086;2022-12-18T09:06:16;22.50;;;8.82;;
68825;SDS011;55841;53.392;10.086;2022-12-18T09:08:44;19.15;;;7.45;;
68825;SDS011;55841;53.392;10.086;2022-12-18T09:11:19;19.60;;;6.72;;
68825;SDS011;55841;53.392;10.086;2022-12-18T09:13:49;17.33;;;6.28;;
68825;SDS011;55841;53.392;10.086;2022-12-18T09:16:15;18.60;;;5.88;;
68825;SDS011;55841;53.392;10.086;2022-12-18T09:18:41;12.82;;;4.30;;
68825;SDS011;55841;53.392;10.086;2022-12-18T09:21:17;15.70;;;4.78;;
68825;SDS011;55841;53.392;10.086;2022-12-18T09:23:48;13.75;;;4.72;;
68825;SDS011;55841;53.392;10.086;2022-12-18T09:26:21;14.15;;;5.07;;
68825;SDS011;55841;53.392;10.086;2022-12-18T09:28:47;16.20;;;6.93;;
68825;SDS011;55841;53.392;10.086;2022-12-18T09:31:14;25.20;;;9.80;;
68825;SDS011;55841;53.392;10.086;2022-12-18T09:33:40;18.05;;;6.45;;
68825;SDS011;55841;53.392;10.086;2022-12-18T09:36:06;18.02;;;7.15;;
68825;SDS011;55841;53.392;10.086;2022-12-18T09:38:34;17.45;;;5.90;;
68825;SDS011;55841;53.392;10.086;2022-12-18T09:41:03;24.00;;;8.48;;
68825;SDS011;55841;53.392;10.086;2022-12-18T09:43:58;20.13;;;6.50;;
68825;SDS011;55841;53.392;10.086;2022-12-18T09:46:31;18.50;;;6.78;;
68825;SDS011;55841;53.392;10.086;2022-12-18T09:48:59;17.05;;;7.00;;
68825;SDS011;55841;53.392;10.086;2022-12-18T09:51:35;17.80;;;6.20;;
68825;SDS011;55841;53.392;10.086;2022-12-18T09:54:05;17.13;;;6.25;;
68825;SDS011;55841;53.392;10.086;2022-12-18T09:56:35;17.83;;;6.05;;
68825;SDS011;55841;53.392;10.086;2022-12-18T09:59:05;15.07;;;6.00;;
68825;SDS011;55841;53.392;10.086;2022-12-18T10:01:32;17.40;;;5.78;;
68825;SDS011;55841;53.392;10.086;2022-12-18T10:03:57;15.73;;;5.85;;
68825;SDS011;55841;53.392;10.086;2022-12-18T10:06:32;16.67;;;6.95;;
68825;SDS011;55841;53.392;10.086;2022-12-18T10:14:50;15.15;;;5.30;;
68825;SDS011;55841;53.392;10.086;2022-12-18T10:17:26;15.45;;;6.00;;
68825;SDS011;55841;53.392;10.086;2022-12-18T10:20:10;14.82;;;6.32;;
68825;SDS011;55841;53.392;10.086;2022-12-18T10:25:22;16.73;;;4.97;;
68825;SDS011;55841;53.392;10.086;2022-12-18T10:28:14;18.25;;;5.95;;
68825;SDS011;55841;53.392;10.086;2022-12-18T10:30:41;18.38;;;6.80;;
68825;SDS011;55841;53.392;10.086;2022-12-18T10:33:18;16.67;;;5.75;;
68825;SDS011;55841;53.392;10.086;2022-12-18T10:35:47;15.90;;;5.25;;
68825;SDS011;55841;53.392;10.086;2022-12-18T10:40:54;18.00;;;7.22;;
68825;SDS011;55841;53.392;10.086;2022-12-18T10:43:34;18.67;;;6.30;;
68825;SDS011;55841;53.392;10.086;2022-12-18T10:48:33;16.40;;;6.60;;
68825;SDS011;55841;53.392;10.086;2022-12-18T10:50:59;18.67;;;6.15;;
68825;SDS011;55841;53.392;10.086;2022-12-18T10:53:26;19.42;;;6.75;;
68825;SDS011;55841;53.392;10.086;2022-12-18T10:55:54;17.08;;;7.43;;
68825;SDS011;55841;53.392;10.086;2022-12-18T10:58:27;20.75;;;7.82;;
68825;SDS011;55841;53.392;10.086;2022-12-18T11:03:38;20.80;;;7.63;;
68825;SDS011;55841;53.392;10.086;2022-12-18T11:06:12;19.98;;;7.13;;
68825;SDS011;55841;53.392;10.086;2022-12-18T11:08:43;20.67;;;8.00;;
68825;SDS011;55841;53.392;10.086;2022-12-18T11:11:22;18.80;;;7.88;;
68825;SDS011;55841;53.392;10.086;2022-12-18T11:13:51;25.17;;;13.50;;
68825;SDS011;55841;53.392;10.086;2022-12-18T11:16:23;18.25;;;6.85;;
68825;SDS011;55841;53.392;10.086;2022-12-18T11:18:49;17.83;;;6.22;;
68825;SDS011;55841;53.392;10.086;2022-12-18T11:21:15;19.70;;;7.60;;
68825;SDS011;55841;53.392;10.086;2022-12-18T11:23:49;13.93;;;5.90;;
68825;SDS011;55841;53.392;10.086;2022-12-18T11:26:16;13.88;;;5.57;;
68825;SDS011;55841;53.392;10.086;2022-12-18T11:28:46;14.20;;;5.55;;
68825;SDS011;55841;53.392;10.086;2022-12-18T11:31:23;15.55;;;6.03;;
68825;SDS011;55841;53.392;10.086;2022-12-18T11:36:34;19.42;;;9.15;;
68825;SDS011;55841;53.392;10.086;2022-12-18T11:39:07;17.30;;;7.13;;
68825;SDS011;55841;53.392;10.086;2022-12-18T11:41:56;18.55;;;6.65;;
68825;SDS011;55841;53.392;10.086;2022-12-18T11:47:23;16.70;;;6.95;;
68825;SDS011;55841;53.392;10.086;2022-12-18T11:49:53;19.98;;;8.95;;
68825;SDS011;55841;53.392;10.086;2022-12-18T11:52:22;16.05;;;7.00;;
68825;SDS011;55841;53.392;10.086;2022-12-18T11:54:55;19.20;;;8.20;;
68825;SDS011;55841;53.392;10.086;2022-12-18T11:57:39;17.65;;;7.03;;
68825;SDS011;55841;53.392;10.086;2022-12-18T12:00:12;16.60;;;6.90;;
68825;SDS011;55841;53.392;10.086;2022-12-18T12:05:53;15.77;;;5.40;;
68825;SDS011;55841;53.392;10.086;2022-12-18T12:08:41;15.63;;;6.50;;
68825;SDS011;55841;53.392;10.086;2022-12-18T12:17:08;17.20;;;6.68;;
68825;SDS011;55841;53.392;10.086;2022-12-18T12:27:25;18.40;;;7.50;;
68825;SDS011;55841;53.392;10.086;2022-12-18T12:30:11;20.27;;;6.90;;
68825;SDS011;55841;53.392;10.086;2022-12-18T12:33:04;21.13;;;7.07;;
68825;SDS011;55841;53.392;10.086;2022-12-18T12:35:44;22.58;;;7.78;;
68825;SDS011;55841;53.392;10.086;2022-12-18T12:41:23;20.48;;;7.88;;
68825;SDS011;55841;53.392;10.086;2022-12-18T12:43:35;21.25;;;7.28;;
68825;SDS011;55841;53.392;10.086;2022-12-18T12:46:09;21.17;;;8.18;;
68825;SDS011;55841;53.392;10.086;2022-12-18T12:48:58;18.63;;;7.70;;
68825;SDS011;55841;53.392;10.086;2022-12-18T12:51:32;22.08;;;8.60;;
68825;SDS011;55841;53.392;10.086;2022-12-18T12:54:02;24.90;;;8.57;;
68825;SDS011;55841;53.392;10.086;2022-12-18T12:56:43;20.90;;;6.93;;
68825;SDS011;55841;53.392;10.086;2022-12-18T12:59:35;23.88;;;8.45;;
68825;SDS011;55841;53.392;10.086;2022-12-18T13:07:41;20.20;;;7.32;;
68825;SDS011;55841;53.392;10.086;2022-12-18T13:10:28;26.05;;;9.30;;
68825;SDS011;55841;53.392;10.086;2022-12-18T13:13:02;22.42;;;8.70;;
68825;SDS011;55841;53.392;10.086;2022-12-18T13:25:50;23.25;;;8.60;;
68825;SDS011;55841;53.392;10.086;2022-12-18T13:31:15;24.27;;;8.70;;
68825;SDS011;55841;53.392;10.086;2022-12-18T13:34:21;23.23;;;8.43;;
68825;SDS011;55841;53.392;10.086;2022-12-18T13:36:49;22.90;;;8.23;;
68825;SDS011;55841;53.392;10.086;2022-12-18T13:41:44;21.48;;;8.13;;
68825;SDS011;55841;53.392;10.086;2022-12-18T13:44:12;28.67;;;10.77;;
68825;SDS011;55841;53.392;10.086;2022-12-18T13:46:45;26.05;;;9.50;;
68825;SDS011;55841;53.392;10.086;2022-12-18T13:51:39;24.58;;;9.05;;
68825;SDS011;55841;53.392;10.086;2022-12-18T13:57:00;29.88;;;11.48;;
68825;SDS011;55841;53.392;10.086;2022-12-18T13:59:36;32.33;;;11.77;;
68825;SDS011;55841;53.392;10.086;2022-12-18T14:02:13;32.72;;;11.80;;
68825;SDS011;55841;53.392;10.086;2022-12-18T14:04:44;30.02;;;10.75;;
68825;SDS011;55841;53.392;10.086;2022-12-18T14:07:12;28.63;;;10.70;;
68825;SDS011;55841;53.392;10.086;2022-12-18T14:09:46;30.60;;;10.93;;
68825;SDS011;55841;53.392;10.086;2022-12-18T14:12:20;28.48;;;9.63;;
68825;SDS011;55841;53.392;10.086;2022-12-18T14:14:49;29.92;;;10.15;;
68825;SDS011;55841;53.392;10.086;2022-12-18T14:17:16;26.80;;;9.50;;
68825;SDS011;55841;53.392;10.086;2022-12-18T14:19:46;27.63;;;10.38;;
68825;SDS011;55841;53.392;10.086;2022-12-18T14:22:15;26.77;;;9.82;;
68825;SDS011;55841;53.392;10.086;2022-12-18T14:24:45;29.45;;;10.93;;
68825;SDS011;55841;53.392;10.086;2022-12-18T14:27:22;29.98;;;11.40;;
68825;SDS011;55841;53.392;10.086;2022-12-18T14:29:50;29.20;;;10.23;;
68825;SDS011;55841;53.392;10.086;2022-12-18T14:32:16;29.60;;;11.10;;
68825;SDS011;55841;53.392;10.086;2022-12-18T14:34:44;37.67;;;14.93;;
68825;SDS011;55841;53.392;10.086;2022-12-18T14:37:16;34.17;;;12.15;;
68825;SDS011;55841;53.392;10.086;2022-12-18T14:39:57;45.58;;;17.35;;
68825;SDS011;55841;53.392;10.086;2022-12-18T14:42:25;37.30;;;13.73;;
68825;SDS011;55841;53.392;10.086;2022-12-18T14:44:52;42.17;;;15.18;;
68825;SDS011;55841;53.392;10.086;2022-12-18T14:47:57;30.10;;;10.43;;
68825;SDS011;55841;53.392;10.086;2022-12-18T14:50:23;32.55;;;10.63;;
68825;SDS011;55841;53.392;10.086;2022-12-18T14:52:49;28.10;;;11.05;;
68825;SDS011;55841;53.392;10.086;2022-12-18T14:55:16;27.33;;;10.48;;
68825;SDS011;55841;53.392;10.086;2022-12-18T15:00:15;28.85;;;10.95;;
68825;SDS011;55841;53.392;10.086;2022-12-18T15:02:43;40.25;;;14.52;;
68825;SDS011;55841;53.392;10.086;2022-12-18T15:07:44;36.95;;;12.23;;
68825;SDS011;55841;53.392;10.086;2022-12-18T15:10:15;43.55;;;14.10;;
68825;SDS011;55841;53.392;10.086;2022-12-18T15:13:27;41.85;;;15.68;;
68825;SDS011;55841;53.392;10.086;2022-12-18T15:17:59;40.22;;;14.07;;
68825;SDS011;55841;53.392;10.086;2022-12-18T15:20:25;36.70;;;15.20;;
68825;SDS011;55841;53.392;10.086;2022-12-18T15:22:51;38.53;;;13.32;;
68825;SDS011;55841;53.392;10.086;2022-12-18T15:25:27;32.10;;;12.00;;
68825;SDS011;55841;53.392;10.086;2022-12-18T15:27:54;60.00;;;19.42;;
68825;SDS011;55841;53.392;10.086;2022-12-18T15:30:24;33.58;;;12.23;;
68825;SDS011;55841;53.392;10.086;2022-12-18T15:32:50;42.70;;;16.48;;
68825;SDS011;55841;53.392;10.086;2022-12-18T15:35:18;36.55;;;13.65;;
68825;SDS011;55841;53.392;10.086;2022-12-18T15:37:44;40.08;;;14.40;;
68825;SDS011;55841;53.392;10.086;2022-12-18T15:40:17;39.13;;;15.63;;
68825;SDS011;55841;53.392;10.086;2022-12-18T15:42:44;41.63;;;15.77;;
68825;SDS011;55841;53.392;10.086;2022-12-18T15:45:11;65.45;;;26.30;;
68825;SDS011;55841;53.392;10.086;2022-12-18T15:47:37;44.13;;;18.42;;
68825;SDS011;55841;53.392;10.086;2022-12-18T15:50:03;32.63;;;12.68;;
68825;SDS011;55841;53.392;10.086;2022-12-18T15:52:29;36.13;;;14.68;;
68825;SDS011;55841;53.392;10.086;2022-12-18T15:55:01;46.63;;;19.05;;
68825;SDS011;55841;53.392;10.086;2022-12-18T15:57:27;31.70;;;12.07;;
68825;SDS011;55841;53.392;10.086;2022-12-18T15:59:53;34.83;;;13.38;;
68825;SDS011;55841;53.392;10.086;2022-12-18T16:02:20;33.92;;;12.25;;
68825;SDS011;55841;53.392;10.086;2022-12-18T16:04:45;36.17;;;12.32;;
68825;SDS011;55841;53.392;10.086;2022-12-18T16:07:11;32.42;;;11.60;;
68825;SDS011;55841;53.392;10.086;2022-12-18T16:09:37;41.80;;;15.57;;
68825;SDS011;55841;53.392;10.086;2022-12-18T16:12:03;36.60;;;12.70;;
68825;SDS011;55841;53.392;10.086;2022-12-18T16:14:30;38.17;;;12.45;;
68825;SDS011;55841;53.392;10.086;2022-12-18T16:16:57;32.45;;;9.98;;
68825;SDS011;55841;53.392;10.086;2022-12-18T16:19:27;33.90;;;11.73;;
68825;SDS011;55841;53.392;10.086;2022-12-18T16:21:55;32.15;;;11.65;;